createdAt,value
2017-05-05T00:00:53.908Z,37.73
2017-05-05T00:03:23.537Z,38.15
2017-05-05T00:05:53.076Z,38.25
2017-05-05T00:08:22.688Z,41.62
2017-05-05T00:10:53.029Z,40.25
2017-05-05T00:13:23.341Z,41.60
2017-05-05T00:15:53.613Z,38.28
2017-05-05T00:18:23.261Z,45.25
2017-05-05T00:20:52.813Z,40.18
2017-05-05T00:23:22.365Z,43.95
2017-05-05T00:25:52.216Z,37.70
2017-05-05T00:28:21.992Z,41.08
2017-05-05T00:30:51.540Z,39.52
2017-05-05T00:33:21.208Z,40.92
2017-05-05T00:35:50.760Z,46.80
2017-05-05T00:38:20.616Z,45.35
2017-05-05T00:40:50.156Z,53.68
2017-05-05T00:43:20.432Z,49.65
2017-05-05T00:45:49.976Z,41.12
2017-05-05T00:48:20.268Z,47.52
2017-05-05T00:50:49.809Z,42.35
2017-05-05T00:53:19.502Z,48.33
2017-05-05T00:55:49.024Z,50.93
2017-05-05T00:58:19.516Z,62.72
2017-05-05T01:00:49.048Z,58.25
2017-05-05T01:03:19.355Z,52.53
2017-05-05T01:05:48.920Z,52.03
2017-05-05T01:08:18.468Z,50.47
2017-05-05T01:10:48.072Z,45.47
2017-05-05T01:13:17.619Z,49.72
2017-05-05T01:15:47.155Z,52.28
2017-05-05T01:18:16.695Z,41.33
2017-05-05T01:20:47.012Z,44.93
2017-05-05T01:23:16.560Z,50.60
2017-05-05T01:25:46.128Z,48.47
2017-05-05T01:28:16.647Z,46.20
2017-05-05T01:30:46.224Z,40.78
2017-05-05T01:33:15.871Z,41.23
2017-05-05T01:35:46.173Z,46.55
2017-05-05T01:38:15.710Z,38.98
2017-05-05T01:40:46.087Z,44.12
2017-05-05T01:43:15.627Z,44.23
2017-05-05T01:45:45.199Z,53.08
2017-05-05T01:48:14.735Z,42.65
2017-05-05T01:50:44.343Z,46.15
2017-05-05T01:53:14.320Z,46.83
2017-05-05T01:55:43.855Z,43.25
2017-05-05T01:58:13.404Z,44.00
2017-05-05T02:00:42.943Z,43.47
2017-05-05T02:03:12.587Z,46.33
2017-05-05T02:05:42.871Z,44.77
2017-05-05T02:08:12.507Z,39.32
2017-05-05T02:10:42.074Z,40.75
2017-05-05T02:13:11.590Z,42.58
2017-05-05T02:15:41.426Z,39.47
2017-05-05T02:18:11.035Z,47.75
2017-05-05T02:20:40.636Z,44.67
2017-05-05T02:23:10.202Z,38.45
2017-05-05T02:25:39.838Z,39.32
2017-05-05T02:28:09.391Z,45.07
2017-05-05T02:30:38.959Z,39.00
2017-05-05T02:33:08.491Z,39.88
2017-05-05T02:35:38.991Z,38.68
2017-05-05T02:38:08.603Z,44.15
2017-05-05T02:40:38.299Z,41.20
2017-05-05T02:43:07.819Z,39.83
2017-05-05T02:45:37.368Z,39.02
2017-05-05T02:48:06.923Z,45.35
2017-05-05T02:50:36.470Z,41.08
2017-05-05T02:53:06.006Z,41.48
2017-05-05T02:55:35.566Z,41.73
2017-05-05T02:58:05.837Z,44.47
2017-05-05T03:00:35.381Z,46.60
2017-05-05T03:03:05.650Z,40.18
2017-05-05T03:05:35.213Z,43.68
2017-05-05T03:08:05.482Z,42.43
2017-05-05T03:10:35.266Z,45.23
2017-05-05T03:13:05.014Z,43.97
2017-05-05T03:15:34.550Z,47.95
2017-05-05T03:18:04.086Z,53.87
2017-05-05T03:20:33.614Z,42.98
2017-05-05T03:23:03.666Z,42.17
2017-05-05T03:25:33.218Z,45.15
2017-05-05T03:28:03.530Z,45.18
2017-05-05T03:30:33.105Z,45.33
2017-05-05T03:33:02.714Z,48.88
2017-05-05T03:35:32.261Z,46.77
2017-05-05T03:38:01.822Z,45.53
2017-05-05T03:40:31.426Z,44.13
2017-05-05T03:43:00.962Z,48.52
2017-05-05T03:45:31.365Z,46.32
2017-05-05T03:48:00.906Z,44.65
2017-05-05T03:50:30.441Z,49.02
2017-05-05T03:53:00.006Z,51.93
2017-05-05T03:55:29.577Z,45.68
2017-05-05T03:57:59.198Z,45.58
2017-05-05T04:00:29.474Z,41.25
2017-05-05T04:02:59.117Z,42.22
2017-05-05T04:05:28.725Z,40.70
2017-05-05T04:07:58.281Z,37.68
2017-05-05T04:10:27.813Z,41.35
2017-05-05T04:12:57.437Z,42.97
2017-05-05T04:15:26.981Z,38.80
2017-05-05T04:17:56.521Z,42.40
2017-05-05T04:20:26.645Z,51.02
2017-05-05T04:22:56.201Z,49.87
2017-05-05T04:25:25.749Z,45.67
2017-05-05T04:27:55.285Z,47.73
2017-05-05T04:30:25.209Z,40.60
2017-05-05T04:32:55.513Z,39.30
2017-05-05T04:35:25.050Z,40.83
2017-05-05T04:37:55.349Z,41.53
2017-05-05T04:40:24.974Z,38.72
2017-05-05T04:42:55.245Z,40.37
2017-05-05T04:45:24.776Z,43.03
2017-05-05T04:47:54.397Z,42.82
2017-05-05T04:50:23.939Z,38.17
2017-05-05T04:52:54.369Z,40.45
2017-05-05T04:55:23.901Z,41.72
2017-05-05T04:57:53.449Z,38.30
2017-05-05T05:00:22.997Z,48.37
2017-05-05T05:02:53.357Z,40.83
2017-05-05T05:05:22.905Z,40.08
2017-05-05T05:07:52.444Z,38.78
2017-05-05T05:10:22.076Z,43.72
2017-05-05T05:12:51.696Z,41.30
2017-05-05T05:15:22.016Z,41.12
2017-05-05T05:17:51.656Z,44.67
2017-05-05T05:20:21.268Z,38.10
2017-05-05T05:22:50.864Z,36.08
2017-05-05T05:25:21.200Z,38.48
2017-05-05T05:27:50.692Z,43.55
2017-05-05T05:30:20.364Z,44.00
2017-05-05T05:32:49.936Z,37.73
2017-05-05T05:35:19.980Z,38.28
2017-05-05T05:37:49.516Z,39.42
2017-05-05T05:40:19.904Z,40.50
2017-05-05T05:42:49.444Z,36.57
2017-05-05T05:45:19.744Z,36.60
2017-05-05T05:47:49.280Z,35.55
2017-05-05T05:50:18.875Z,38.27
2017-05-05T05:52:49.168Z,36.90
2017-05-05T05:55:18.800Z,33.70
2017-05-05T05:57:49.120Z,36.00
2017-05-05T06:00:19.452Z,34.38
2017-05-05T06:02:49.744Z,31.23
2017-05-05T06:05:19.275Z,36.10
2017-05-05T06:07:49.575Z,30.45
2017-05-05T06:10:19.116Z,28.42
2017-05-05T06:12:48.664Z,25.73
2017-05-05T06:15:18.223Z,27.78
2017-05-05T06:17:48.523Z,24.05
2017-05-05T06:20:18.208Z,26.20
2017-05-05T06:22:47.827Z,30.25
2017-05-05T06:25:17.352Z,24.35
2017-05-05T06:27:47.856Z,29.40
2017-05-05T06:30:17.403Z,23.80
2017-05-05T06:32:46.943Z,26.85
2017-05-05T06:35:16.483Z,24.90
2017-05-05T06:37:46.043Z,28.90
2017-05-05T06:40:15.583Z,25.40
2017-05-05T06:42:45.143Z,22.88
2017-05-05T06:45:14.795Z,26.10
2017-05-05T06:47:44.488Z,28.55
2017-05-05T06:50:14.043Z,23.68
2017-05-05T06:52:44.347Z,25.08
2017-05-05T06:55:14.895Z,26.78
2017-05-05T06:57:45.203Z,25.33
2017-05-05T07:00:14.743Z,22.00
2017-05-05T07:02:44.294Z,22.37
2017-05-05T07:05:14.044Z,25.07
2017-05-05T07:07:43.720Z,23.43
2017-05-05T07:10:13.295Z,27.48
2017-05-05T07:12:42.838Z,22.25
2017-05-05T07:15:12.399Z,22.27
2017-05-05T07:17:41.963Z,19.83
2017-05-05T07:20:11.503Z,21.08
2017-05-05T07:22:41.047Z,21.38
2017-05-05T07:25:10.582Z,19.28
2017-05-05T07:27:40.875Z,18.07
2017-05-05T07:30:10.427Z,21.17
2017-05-05T07:32:39.987Z,21.58
2017-05-05T07:35:09.526Z,20.80
2017-05-05T07:37:39.830Z,24.50
2017-05-05T07:40:10.107Z,21.02
2017-05-05T07:42:39.658Z,22.45
2017-05-05T07:45:09.939Z,21.50
2017-05-05T07:47:39.486Z,20.90
2017-05-05T07:50:09.767Z,24.48
2017-05-05T07:52:39.334Z,21.10
2017-05-05T07:55:08.904Z,20.07
2017-05-05T07:57:38.470Z,20.28
2017-05-05T08:00:08.022Z,21.43
2017-05-05T08:02:37.560Z,19.53
2017-05-05T08:05:07.330Z,19.83
2017-05-05T08:07:36.867Z,22.42
2017-05-05T08:10:07.466Z,22.93
2017-05-05T08:12:37.034Z,21.65
2017-05-05T08:15:06.674Z,21.67
2017-05-05T08:17:36.190Z,22.78
2017-05-05T08:20:05.770Z,19.88
2017-05-05T08:22:35.342Z,20.33
2017-05-05T08:25:04.882Z,20.95
2017-05-05T08:27:34.451Z,22.50
2017-05-05T08:30:04.227Z,20.07
2017-05-05T08:32:33.822Z,20.70
2017-05-05T08:35:03.333Z,23.02
2017-05-05T08:37:32.901Z,21.20
2017-05-05T08:40:02.430Z,23.90
2017-05-05T08:42:31.986Z,21.67
2017-05-05T08:45:01.522Z,24.35
2017-05-05T08:47:31.098Z,22.27
2017-05-05T08:50:00.653Z,22.08
2017-05-05T08:52:30.178Z,22.95
2017-05-05T08:55:00.485Z,22.58
2017-05-05T08:57:30.024Z,21.32
2017-05-05T09:00:00.338Z,27.03
2017-05-05T09:02:30.610Z,26.55
2017-05-05T09:05:00.162Z,30.73
2017-05-05T09:07:30.458Z,26.08
2017-05-05T09:09:59.997Z,22.22
2017-05-05T09:12:30.278Z,22.52
2017-05-05T09:14:59.830Z,21.85
2017-05-05T09:17:30.106Z,18.05
2017-05-05T09:19:59.679Z,19.42
2017-05-05T09:22:29.213Z,17.30
2017-05-05T09:24:58.762Z,16.27
2017-05-05T09:27:29.041Z,19.70
2017-05-05T09:29:58.582Z,18.18
2017-05-05T09:32:28.869Z,18.43
2017-05-05T09:34:58.425Z,17.22
2017-05-05T09:37:27.978Z,15.18
2017-05-05T09:39:57.533Z,14.52
2017-05-05T09:42:28.805Z,16.45
2017-05-05T09:44:58.366Z,15.25
2017-05-05T09:47:27.906Z,18.95
2017-05-05T09:49:57.457Z,15.87
2017-05-05T09:52:27.005Z,17.45
2017-05-05T09:54:56.554Z,16.30
2017-05-05T09:57:26.109Z,15.82
2017-05-05T09:59:55.663Z,16.02
2017-05-05T10:02:25.325Z,18.43
2017-05-05T10:04:54.990Z,17.18
2017-05-05T10:07:24.549Z,15.73
2017-05-05T10:09:54.098Z,16.38
2017-05-05T10:12:23.677Z,16.27
2017-05-05T10:14:53.225Z,15.45
2017-05-05T10:17:22.809Z,15.23
2017-05-05T10:19:52.357Z,15.23
2017-05-05T10:22:22.669Z,14.55
2017-05-05T10:24:52.965Z,15.30
2017-05-05T10:27:22.565Z,13.88
2017-05-05T10:29:52.101Z,14.98
2017-05-05T10:32:22.432Z,15.95
2017-05-05T10:34:52.725Z,14.87
2017-05-05T10:37:22.308Z,15.78
2017-05-05T10:39:51.853Z,13.90
2017-05-05T10:42:21.417Z,14.70
2017-05-05T10:44:50.965Z,14.72
2017-05-05T10:47:20.532Z,13.02
2017-05-05T10:49:50.109Z,14.66
2017-05-05T10:52:19.648Z,14.94
2017-05-05T10:54:49.204Z,13.82
2017-05-05T10:57:19.504Z,14.62
2017-05-05T10:59:49.056Z,14.16
2017-05-05T11:02:18.609Z,15.88
2017-05-05T11:04:48.158Z,12.98
2017-05-05T11:07:17.736Z,14.26
2017-05-05T11:09:48.028Z,12.52
2017-05-05T11:12:17.591Z,12.62
2017-05-05T11:14:47.873Z,13.86
2017-05-05T11:17:17.417Z,13.82
2017-05-05T11:19:46.977Z,13.30
2017-05-05T11:22:16.549Z,13.08
2017-05-05T11:24:46.652Z,14.46
2017-05-05T11:27:16.204Z,13.36
2017-05-05T11:29:45.760Z,14.26
2017-05-05T11:32:15.432Z,13.60
2017-05-05T11:34:44.992Z,13.02
2017-05-05T11:37:14.572Z,12.80
2017-05-05T11:39:44.131Z,12.70
2017-05-05T11:42:14.528Z,12.04
2017-05-05T11:44:44.064Z,11.12
2017-05-05T11:47:14.060Z,12.80
2017-05-05T11:49:43.619Z,13.70
2017-05-05T11:52:14.148Z,12.46
2017-05-05T11:54:44.452Z,11.66
2017-05-05T11:57:14.020Z,12.98
2017-05-05T11:59:43.571Z,11.46
2017-05-05T12:02:14.216Z,12.30
2017-05-05T12:04:44.500Z,12.32
2017-05-05T12:07:14.069Z,12.54
2017-05-05T12:09:43.636Z,12.72
2017-05-05T12:12:13.219Z,11.06
2017-05-05T12:14:42.765Z,12.90
2017-05-05T12:17:13.051Z,10.72
2017-05-05T12:19:42.596Z,10.16
2017-05-05T12:22:12.923Z,10.50
2017-05-05T12:24:43.216Z,10.70
2017-05-05T12:27:12.780Z,10.68
2017-05-05T12:29:42.315Z,10.04
2017-05-05T12:32:11.903Z,12.68
2017-05-05T12:34:41.451Z,9.94
2017-05-05T12:37:11.215Z,11.38
2017-05-05T12:39:40.875Z,10.00
2017-05-05T12:42:10.423Z,10.62
2017-05-05T12:44:39.977Z,9.76
2017-05-05T12:47:09.527Z,10.38
2017-05-05T12:49:39.107Z,9.54
2017-05-05T12:52:09.378Z,8.38
2017-05-05T12:54:38.919Z,9.70
2017-05-05T12:57:08.451Z,10.82
2017-05-05T12:59:38.030Z,10.98
2017-05-05T13:02:07.559Z,9.36
2017-05-05T13:04:38.062Z,10.18
2017-05-05T13:07:07.638Z,10.28
2017-05-05T13:09:37.242Z,9.62
2017-05-05T13:12:06.803Z,8.18
2017-05-05T13:14:37.186Z,9.58
2017-05-05T13:17:06.683Z,8.98
2017-05-05T13:19:36.219Z,8.50
2017-05-05T13:22:06.519Z,9.68
2017-05-05T13:24:36.058Z,9.90
2017-05-05T13:27:06.338Z,8.96
2017-05-05T13:29:35.862Z,15.02
2017-05-05T13:32:05.422Z,9.94
2017-05-05T13:34:34.958Z,9.26
2017-05-05T13:37:04.506Z,10.48
2017-05-05T13:39:34.178Z,8.14
2017-05-05T13:42:03.678Z,10.14
2017-05-05T13:44:33.218Z,8.70
2017-05-05T13:47:03.486Z,7.76
2017-05-05T13:49:33.073Z,8.76
2017-05-05T13:52:02.602Z,7.78
2017-05-05T13:54:32.245Z,7.20
2017-05-05T13:57:02.533Z,7.32
2017-05-05T13:59:32.070Z,7.72
2017-05-05T14:02:01.618Z,7.48
2017-05-05T14:04:31.150Z,7.30
2017-05-05T14:07:00.697Z,13.12
2017-05-05T14:09:31.154Z,8.00
2017-05-05T14:12:00.746Z,9.60
2017-05-05T14:14:30.270Z,7.66
2017-05-05T14:16:59.830Z,6.58
2017-05-05T14:19:29.362Z,6.90
2017-05-05T14:21:58.897Z,8.92
2017-05-05T14:24:28.437Z,7.00
2017-05-05T14:26:57.981Z,8.96
2017-05-05T14:29:27.514Z,6.76
2017-05-05T14:31:57.070Z,7.00
2017-05-05T14:34:26.597Z,7.34
2017-05-05T14:36:56.135Z,9.16
2017-05-05T14:39:25.669Z,8.16
2017-05-05T14:41:55.249Z,8.04
2017-05-05T14:44:24.769Z,7.28
2017-05-05T14:46:54.329Z,7.04
2017-05-05T14:49:23.849Z,10.06
2017-05-05T14:51:53.458Z,6.28
2017-05-05T14:54:23.045Z,6.08
2017-05-05T14:56:52.572Z,7.88
2017-05-05T14:59:22.113Z,7.00
2017-05-05T15:01:51.649Z,7.42
2017-05-05T15:04:21.185Z,6.16
2017-05-05T15:06:50.713Z,6.88
2017-05-05T15:09:20.251Z,6.60
2017-05-05T15:11:50.716Z,6.12
2017-05-05T15:14:20.245Z,5.92
2017-05-05T15:16:49.789Z,6.72
2017-05-05T15:19:20.062Z,7.20
2017-05-05T15:21:49.592Z,7.20
2017-05-05T15:24:19.892Z,7.86
2017-05-05T15:26:49.433Z,5.92
2017-05-05T15:29:18.968Z,7.10
2017-05-05T15:31:48.508Z,7.10
2017-05-05T15:34:18.844Z,6.14
2017-05-05T15:36:48.381Z,6.58
2017-05-05T15:39:18.652Z,5.20
2017-05-05T15:41:48.189Z,5.74
2017-05-05T15:44:17.732Z,5.28
2017-05-05T15:46:47.301Z,5.52
2017-05-05T15:49:16.845Z,5.46
2017-05-05T15:51:46.381Z,4.64
2017-05-05T15:54:16.026Z,5.96
2017-05-05T15:56:45.565Z,7.20
2017-05-05T15:59:15.116Z,5.58
2017-05-05T16:01:44.644Z,7.14
2017-05-05T16:04:14.944Z,5.86
2017-05-05T16:06:44.476Z,5.44
2017-05-05T16:09:14.760Z,6.42
2017-05-05T16:11:44.696Z,7.60
2017-05-05T16:14:14.272Z,14.48
2017-05-05T16:16:43.823Z,9.58
2017-05-05T16:19:13.372Z,7.40
2017-05-05T16:21:42.916Z,7.06
2017-05-05T16:24:12.458Z,6.70
2017-05-05T16:26:42.792Z,6.62
2017-05-05T16:29:12.335Z,9.32
2017-05-05T16:31:41.871Z,8.60
2017-05-05T16:34:12.152Z,7.78
2017-05-05T16:36:41.700Z,9.04
2017-05-05T16:39:11.976Z,8.66
2017-05-05T16:41:41.528Z,9.46
2017-05-05T16:44:11.504Z,6.62
2017-05-05T16:46:41.044Z,7.12
2017-05-05T16:49:10.571Z,6.90
2017-05-05T16:51:40.136Z,6.98
2017-05-05T16:54:09.664Z,7.90
2017-05-05T16:56:39.948Z,7.36
2017-05-05T16:59:09.484Z,7.88
2017-05-05T17:01:39.048Z,7.44
2017-05-05T17:04:08.579Z,7.96
2017-05-05T17:06:38.108Z,7.20
2017-05-05T17:09:08.403Z,7.04
2017-05-05T17:11:37.931Z,7.48
2017-05-05T17:14:07.492Z,7.60
2017-05-05T17:16:37.095Z,7.50
2017-05-05T17:19:06.683Z,7.52
2017-05-05T17:21:36.235Z,8.34
2017-05-05T17:24:05.795Z,6.44
2017-05-05T17:26:35.331Z,13.54
2017-05-05T17:29:04.871Z,7.50
2017-05-05T17:31:35.143Z,8.92
2017-05-05T17:34:04.744Z,13.66
2017-05-05T17:36:34.383Z,8.54
2017-05-05T17:39:03.907Z,7.62
2017-05-05T17:41:33.439Z,8.20
2017-05-05T17:44:02.975Z,7.88
2017-05-05T17:46:32.539Z,7.58
2017-05-05T17:49:02.820Z,11.56
2017-05-05T17:51:32.379Z,7.08
2017-05-05T17:54:02.647Z,7.76
2017-05-05T17:56:32.187Z,8.32
2017-05-05T17:59:02.488Z,7.98
2017-05-05T18:01:32.026Z,8.06
2017-05-05T18:04:02.298Z,8.52
2017-05-05T18:06:31.851Z,9.18
2017-05-05T18:09:01.629Z,8.60
2017-05-05T18:11:31.160Z,8.97
2017-05-05T18:14:01.487Z,8.08
2017-05-05T18:16:31.763Z,7.98
2017-05-05T18:19:01.318Z,10.27
2017-05-05T18:21:30.863Z,10.93
2017-05-05T18:24:00.410Z,14.87
2017-05-05T18:26:30.699Z,17.42
2017-05-05T18:29:00.251Z,15.30
2017-05-05T18:31:29.795Z,12.03
2017-05-05T18:33:59.342Z,12.85
2017-05-05T18:36:29.835Z,9.07
2017-05-05T18:38:59.378Z,9.52
2017-05-05T18:41:28.918Z,9.52
2017-05-05T18:43:58.478Z,11.32
2017-05-05T18:46:28.018Z,8.42
2017-05-05T18:48:57.554Z,8.82
2017-05-05T18:51:27.083Z,8.27
2017-05-05T18:53:56.634Z,9.08
2017-05-05T18:56:26.906Z,8.27
2017-05-05T18:58:56.454Z,9.40
2017-05-05T19:01:26.730Z,9.02
2017-05-05T19:03:56.626Z,11.10
2017-05-05T19:06:26.166Z,9.33
2017-05-05T19:08:55.702Z,11.82
2017-05-05T19:11:26.013Z,12.32
2017-05-05T19:13:55.830Z,8.20
2017-05-05T19:16:26.126Z,9.62
2017-05-05T19:18:55.678Z,8.78
2017-05-05T19:21:25.285Z,9.88
2017-05-05T19:23:55.606Z,8.65
2017-05-05T19:26:25.882Z,8.40
2017-05-05T19:28:55.414Z,9.80
2017-05-05T19:31:25.914Z,8.08
2017-05-05T19:33:55.461Z,9.08
2017-05-05T19:36:25.862Z,11.95
2017-05-05T19:38:55.413Z,13.88
2017-05-05T19:41:24.962Z,12.87
2017-05-05T19:43:54.554Z,9.85
2017-05-05T19:46:24.142Z,12.63
2017-05-05T19:48:53.717Z,15.73
2017-05-05T19:51:23.501Z,9.33
2017-05-05T19:53:53.041Z,11.17
2017-05-05T19:56:22.574Z,9.42
2017-05-05T19:58:52.117Z,8.62
2017-05-05T20:01:21.665Z,8.20
2017-05-05T20:03:51.205Z,11.10
2017-05-05T20:06:20.769Z,12.70
2017-05-05T20:08:50.325Z,15.38
2017-05-05T20:11:19.889Z,15.58
2017-05-05T20:13:50.489Z,10.92
2017-05-05T20:16:20.289Z,10.30
2017-05-05T20:18:50.705Z,11.03
2017-05-05T20:21:20.236Z,17.45
2017-05-05T20:23:49.828Z,16.50
2017-05-05T20:26:19.577Z,11.37
2017-05-05T20:28:49.148Z,9.43
2017-05-05T20:31:19.601Z,9.03
2017-05-05T20:33:49.177Z,11.32
2017-05-05T20:36:18.904Z,9.20
2017-05-05T20:38:49.228Z,8.18
2017-05-05T20:41:18.929Z,10.03
2017-05-05T20:43:49.216Z,8.50
2017-05-05T20:46:18.785Z,12.83
2017-05-05T20:48:48.348Z,9.95
2017-05-05T20:53:56.596Z,9.98
2017-05-05T20:56:27.033Z,9.53
2017-05-05T20:58:56.572Z,11.73
2017-05-05T21:01:26.148Z,14.72
2017-05-05T21:03:55.729Z,11.16
2017-05-05T21:06:26.032Z,11.88
2017-05-05T21:08:55.644Z,12.43
2017-05-05T21:11:25.184Z,10.47
2017-05-05T21:13:54.800Z,10.22
2017-05-05T21:16:24.366Z,12.58
2017-05-05T21:18:53.941Z,14.38
2017-05-05T21:21:23.512Z,12.93
2017-05-05T21:23:53.100Z,11.95
2017-05-05T21:26:23.452Z,17.02
2017-05-05T21:28:53.036Z,16.77
2017-05-05T21:31:23.320Z,19.95
2017-05-05T21:33:52.880Z,19.93
2017-05-05T21:36:22.488Z,15.92
2017-05-05T21:38:52.035Z,14.65
2017-05-05T21:41:21.641Z,16.37
2017-05-05T21:43:51.211Z,19.48
2017-05-05T21:46:20.771Z,19.57
2017-05-05T21:48:50.376Z,25.55
2017-05-05T21:51:19.959Z,17.63
2017-05-05T21:53:49.832Z,13.80
2017-05-05T21:56:19.643Z,21.27
2017-05-05T21:58:49.217Z,18.42
2017-05-05T22:01:18.856Z,18.35
2017-05-05T22:03:48.468Z,15.53
2017-05-05T22:06:18.056Z,11.87
2017-05-05T22:08:48.352Z,12.90
2017-05-05T22:11:17.904Z,12.80
2017-05-05T22:13:47.772Z,16.32
2017-05-05T22:16:17.440Z,20.20
2017-05-05T22:18:47.003Z,15.07
2017-05-05T22:21:17.284Z,22.27
2017-05-05T22:23:46.831Z,22.97
2017-05-05T22:26:18.067Z,21.05
2017-05-05T22:28:48.335Z,18.73
2017-05-05T22:31:17.971Z,17.62
2017-05-05T22:33:47.543Z,16.28
2017-05-05T22:36:17.091Z,20.33
2017-05-05T22:38:46.623Z,20.10
2017-05-05T22:41:16.935Z,18.37
2017-05-05T22:43:47.211Z,16.80
2017-05-05T22:46:16.752Z,16.42
2017-05-05T22:48:46.291Z,21.40
2017-05-05T22:51:15.843Z,16.72
2017-05-05T22:53:45.371Z,17.67
2017-05-05T22:56:14.931Z,18.02
2017-05-05T22:58:44.443Z,19.43
2017-05-05T23:01:13.978Z,21.82
2017-05-05T23:03:43.603Z,18.85
2017-05-05T23:06:13.087Z,18.85
2017-05-05T23:08:42.623Z,15.50
2017-05-05T23:11:12.195Z,19.82
2017-05-05T23:13:41.743Z,20.12
2017-05-05T23:16:11.275Z,17.72
2017-05-05T23:18:40.910Z,20.90
2017-05-05T23:21:10.447Z,15.72
2017-05-05T23:23:40.751Z,16.12
2017-05-05T23:26:11.099Z,17.20
2017-05-05T23:28:41.402Z,20.48
2017-05-05T23:31:11.694Z,17.83
2017-05-05T23:33:41.366Z,18.03
2017-05-05T23:36:10.934Z,17.65
2017-05-05T23:41:02.595Z,22.03
2017-05-05T23:43:32.131Z,26.63
2017-05-05T23:46:01.699Z,23.63
2017-05-05T23:48:31.931Z,20.80
2017-05-05T23:51:02.070Z,22.78
2017-05-05T23:53:31.599Z,18.08
2017-05-05T23:56:01.223Z,18.15
2017-05-05T23:58:30.786Z,18.70
